Pagrindinis puslapis
METAR-TAF:

METAR-TAF

Oro uostai :

Puerto Cabezas, Nikaragva

platuma: 14-03N, ilguma: 083-22W, Aukštis: 20 m

Dabartinis oras

Ataskaita buvo paskelbta 4 valandos ir 30 minutes, ne 23:00 UTC
Vėjas 6 kt iš Rytų
Temperatūra 30°C
Drėgmė 79%
Slėgis 1010 hPa
Matomumas: 7000 m
Su prošvaistėmis ne aukštis 1600 ft
migla,

METAR: MNPC 242300Z 08006KT 7000 BKN016 30/26 Q1010 HZ

Laikas: 21:30 (03:30 UTC)

Prognozė

Ataskaita buvo paskelbta 6 valandos ir 30 minutes, ne 21:00 UTC
Prognozė galioja nuo 25 metu 00 UTC su 25 metu 24 UTC
Vėjas 8 kt iš Rytų
Matomumas: 7000 m
Su prošvaistėmis ne aukštis 1600 ft
Laikinai
nuo 25 metu 06 UTC su 25 metu 13 UTC
Vėjas 4 kt iš Šiaurės/Šiaurės Rytų

TAF: MNPC 242100Z 2500/2524 09008KT 7000 HZ/VCRA BKN016 TEMPO 2506/2513 02004KT

Orai ataskaitas ir orų prognozės (METAR, TAF).

turimą stotys yra geltonos ir raudonos taškus žemėlapyje.

Perkelti pele per norėdami pamatyti stoties vardą.

Tada spustelėkite, norėdami matyti oro stebėjimo ir prognozės.

Norėdami pakeisti žemėlapį: spustelėkite ant žalios mygtukų su juodo kryžiaus žemyn,; žalią mygtuką su brūkšneliu, jei norite nutolinti; arba žalių rodyklių gretimoms žemėlapius.


METAR-TAF: